sensor_id;sensor_type;location;lat;lon;timestamp;P1;durP1;ratioP1;P2;durP2;ratioP2
19095;SDS011;9680;52.520;13.332;2023-06-22T00:02:03;14.23;;;9.07;;
19095;SDS011;9680;52.520;13.332;2023-06-22T00:04:30;13.63;;;8.93;;
19095;SDS011;9680;52.520;13.332;2023-06-22T00:06:57;14.63;;;9.27;;
19095;SDS011;9680;52.520;13.332;2023-06-22T00:09:25;15.10;;;8.82;;
19095;SDS011;9680;52.520;13.332;2023-06-22T00:11:52;19.80;;;9.00;;
19095;SDS011;9680;52.520;13.332;2023-06-22T00:14:19;13.13;;;9.20;;
19095;SDS011;9680;52.520;13.332;2023-06-22T00:16:45;15.15;;;9.65;;
19095;SDS011;9680;52.520;13.332;2023-06-22T00:19:13;15.50;;;9.50;;
19095;SDS011;9680;52.520;13.332;2023-06-22T00:21:43;13.60;;;9.13;;
19095;SDS011;9680;52.520;13.332;2023-06-22T00:24:12;17.33;;;9.43;;
19095;SDS011;9680;52.520;13.332;2023-06-22T00:26:40;13.45;;;9.15;;
19095;SDS011;9680;52.520;13.332;2023-06-22T00:29:08;15.88;;;9.45;;
19095;SDS011;9680;52.520;13.332;2023-06-22T00:31:35;12.15;;;8.52;;
19095;SDS011;9680;52.520;13.332;2023-06-22T00:34:02;14.88;;;8.63;;
19095;SDS011;9680;52.520;13.332;2023-06-22T00:36:33;13.85;;;8.68;;
19095;SDS011;9680;52.520;13.332;2023-06-22T00:39:02;12.88;;;8.93;;
19095;SDS011;9680;52.520;13.332;2023-06-22T00:41:30;14.43;;;9.00;;
19095;SDS011;9680;52.520;13.332;2023-06-22T00:43:58;14.20;;;8.95;;
19095;SDS011;9680;52.520;13.332;2023-06-22T00:46:25;14.50;;;8.30;;
19095;SDS011;9680;52.520;13.332;2023-06-22T00:48:52;12.85;;;8.73;;
19095;SDS011;9680;52.520;13.332;2023-06-22T00:51:22;12.40;;;8.77;;
19095;SDS011;9680;52.520;13.332;2023-06-22T00:53:49;12.25;;;8.35;;
19095;SDS011;9680;52.520;13.332;2023-06-22T00:56:16;13.00;;;8.55;;
19095;SDS011;9680;52.520;13.332;2023-06-22T00:58:44;12.88;;;8.65;;
19095;SDS011;9680;52.520;13.332;2023-06-22T01:01:13;15.43;;;9.02;;
19095;SDS011;9680;52.520;13.332;2023-06-22T01:03:40;13.13;;;8.60;;
19095;SDS011;9680;52.520;13.332;2023-06-22T01:06:08;18.25;;;9.20;;
19095;SDS011;9680;52.520;13.332;2023-06-22T01:08:42;13.75;;;8.90;;
19095;SDS011;9680;52.520;13.332;2023-06-22T01:11:16;14.60;;;9.48;;
19095;SDS011;9680;52.520;13.332;2023-06-22T01:13:49;13.32;;;9.02;;
19095;SDS011;9680;52.520;13.332;2023-06-22T01:16:25;14.98;;;9.02;;
19095;SDS011;9680;52.520;13.332;2023-06-22T01:18:55;14.63;;;9.40;;
19095;SDS011;9680;52.520;13.332;2023-06-22T01:21:24;13.90;;;8.75;;
19095;SDS011;9680;52.520;13.332;2023-06-22T01:23:56;11.52;;;8.68;;
19095;SDS011;9680;52.520;13.332;2023-06-22T01:26:38;14.52;;;9.02;;
19095;SDS011;9680;52.520;13.332;2023-06-22T01:29:11;16.85;;;8.68;;
19095;SDS011;9680;52.520;13.332;2023-06-22T01:31:41;13.57;;;8.35;;
19095;SDS011;9680;52.520;13.332;2023-06-22T01:34:11;15.98;;;9.07;;
19095;SDS011;9680;52.520;13.332;2023-06-22T01:36:39;15.20;;;9.02;;
19095;SDS011;9680;52.520;13.332;2023-06-22T01:39:07;14.25;;;9.05;;
19095;SDS011;9680;52.520;13.332;2023-06-22T01:41:36;14.35;;;9.13;;
19095;SDS011;9680;52.520;13.332;2023-06-22T01:44:04;16.35;;;9.68;;
19095;SDS011;9680;52.520;13.332;2023-06-22T01:46:33;13.95;;;9.13;;
19095;SDS011;9680;52.520;13.332;2023-06-22T01:49:01;14.73;;;9.32;;
19095;SDS011;9680;52.520;13.332;2023-06-22T01:51:29;13.15;;;8.93;;
19095;SDS011;9680;52.520;13.332;2023-06-22T01:53:59;13.90;;;9.23;;
19095;SDS011;9680;52.520;13.332;2023-06-22T01:56:25;15.63;;;9.90;;
19095;SDS011;9680;52.520;13.332;2023-06-22T01:58:55;16.55;;;9.57;;
19095;SDS011;9680;52.520;13.332;2023-06-22T02:01:31;13.50;;;9.90;;
19095;SDS011;9680;52.520;13.332;2023-06-22T02:04:08;14.93;;;9.63;;
19095;SDS011;9680;52.520;13.332;2023-06-22T02:06:39;14.40;;;9.70;;
19095;SDS011;9680;52.520;13.332;2023-06-22T02:09:12;16.58;;;10.68;;
19095;SDS011;9680;52.520;13.332;2023-06-22T02:11:42;15.00;;;10.10;;
19095;SDS011;9680;52.520;13.332;2023-06-22T02:14:13;19.00;;;11.07;;
19095;SDS011;9680;52.520;13.332;2023-06-22T02:16:43;17.45;;;10.38;;
19095;SDS011;9680;52.520;13.332;2023-06-22T02:19:10;17.45;;;11.13;;
19095;SDS011;9680;52.520;13.332;2023-06-22T02:21:36;17.67;;;11.65;;
19095;SDS011;9680;52.520;13.332;2023-06-22T02:24:04;18.35;;;11.63;;
19095;SDS011;9680;52.520;13.332;2023-06-22T02:26:31;18.55;;;11.07;;
19095;SDS011;9680;52.520;13.332;2023-06-22T02:29:01;17.85;;;11.40;;
19095;SDS011;9680;52.520;13.332;2023-06-22T02:31:27;18.35;;;12.20;;
19095;SDS011;9680;52.520;13.332;2023-06-22T02:33:57;19.60;;;11.95;;
19095;SDS011;9680;52.520;13.332;2023-06-22T02:36:24;18.42;;;11.32;;
19095;SDS011;9680;52.520;13.332;2023-06-22T02:38:52;21.80;;;11.90;;
19095;SDS011;9680;52.520;13.332;2023-06-22T02:41:21;18.15;;;12.45;;
19095;SDS011;9680;52.520;13.332;2023-06-22T02:43:48;17.35;;;11.57;;
19095;SDS011;9680;52.520;13.332;2023-06-22T02:46:18;21.23;;;12.80;;
19095;SDS011;9680;52.520;13.332;2023-06-22T02:48:45;17.98;;;11.60;;
19095;SDS011;9680;52.520;13.332;2023-06-22T02:51:14;18.27;;;11.70;;
19095;SDS011;9680;52.520;13.332;2023-06-22T02:53:41;20.40;;;12.18;;
19095;SDS011;9680;52.520;13.332;2023-06-22T02:56:11;18.42;;;12.13;;
19095;SDS011;9680;52.520;13.332;2023-06-22T02:58:38;18.88;;;12.15;;
19095;SDS011;9680;52.520;13.332;2023-06-22T03:01:08;18.92;;;11.63;;
19095;SDS011;9680;52.520;13.332;2023-06-22T03:03:36;18.25;;;11.32;;
19095;SDS011;9680;52.520;13.332;2023-06-22T03:06:03;17.10;;;11.60;;
19095;SDS011;9680;52.520;13.332;2023-06-22T03:08:31;21.17;;;12.98;;
19095;SDS011;9680;52.520;13.332;2023-06-22T03:10:58;18.58;;;12.45;;
19095;SDS011;9680;52.520;13.332;2023-06-22T03:13:25;19.70;;;12.35;;
19095;SDS011;9680;52.520;13.332;2023-06-22T03:15:53;22.10;;;12.65;;
19095;SDS011;9680;52.520;13.332;2023-06-22T03:18:20;19.75;;;12.57;;
19095;SDS011;9680;52.520;13.332;2023-06-22T03:20:47;18.75;;;12.45;;
19095;SDS011;9680;52.520;13.332;2023-06-22T03:23:14;18.38;;;11.38;;
19095;SDS011;9680;52.520;13.332;2023-06-22T03:25:44;16.80;;;11.15;;
19095;SDS011;9680;52.520;13.332;2023-06-22T03:28:11;23.15;;;11.63;;
19095;SDS011;9680;52.520;13.332;2023-06-22T03:30:38;17.52;;;11.18;;
19095;SDS011;9680;52.520;13.332;2023-06-22T03:33:04;17.42;;;10.85;;
19095;SDS011;9680;52.520;13.332;2023-06-22T03:35:33;19.35;;;11.70;;
19095;SDS011;9680;52.520;13.332;2023-06-22T03:37:59;15.68;;;10.27;;
19095;SDS011;9680;52.520;13.332;2023-06-22T03:40:38;16.80;;;10.25;;
19095;SDS011;9680;52.520;13.332;2023-06-22T03:43:17;15.57;;;10.25;;
19095;SDS011;9680;52.520;13.332;2023-06-22T03:45:44;15.55;;;9.80;;
19095;SDS011;9680;52.520;13.332;2023-06-22T03:48:12;15.98;;;9.70;;
19095;SDS011;9680;52.520;13.332;2023-06-22T03:50:38;14.90;;;9.10;;
19095;SDS011;9680;52.520;13.332;2023-06-22T03:53:05;12.23;;;8.48;;
19095;SDS011;9680;52.520;13.332;2023-06-22T03:55:33;11.52;;;7.80;;
19095;SDS011;9680;52.520;13.332;2023-06-22T03:58:00;12.55;;;7.40;;
19095;SDS011;9680;52.520;13.332;2023-06-22T04:00:32;12.10;;;8.20;;
19095;SDS011;9680;52.520;13.332;2023-06-22T04:02:59;15.15;;;7.63;;
19095;SDS011;9680;52.520;13.332;2023-06-22T04:05:25;13.18;;;8.55;;
19095;SDS011;9680;52.520;13.332;2023-06-22T04:07:52;15.05;;;8.43;;
19095;SDS011;9680;52.520;13.332;2023-06-22T04:10:19;16.50;;;8.50;;
19095;SDS011;9680;52.520;13.332;2023-06-22T04:12:46;12.48;;;8.27;;
19095;SDS011;9680;52.520;13.332;2023-06-22T04:15:13;14.90;;;8.30;;
19095;SDS011;9680;52.520;13.332;2023-06-22T04:17:41;10.82;;;7.55;;
19095;SDS011;9680;52.520;13.332;2023-06-22T04:20:08;12.55;;;7.90;;
19095;SDS011;9680;52.520;13.332;2023-06-22T04:22:35;10.63;;;6.53;;
19095;SDS011;9680;52.520;13.332;2023-06-22T04:25:02;12.40;;;6.55;;
19095;SDS011;9680;52.520;13.332;2023-06-22T04:27:29;9.93;;;6.22;;
19095;SDS011;9680;52.520;13.332;2023-06-22T04:29:56;10.63;;;6.72;;
19095;SDS011;9680;52.520;13.332;2023-06-22T04:32:25;10.40;;;6.80;;
19095;SDS011;9680;52.520;13.332;2023-06-22T04:34:53;10.95;;;6.68;;
19095;SDS011;9680;52.520;13.332;2023-06-22T04:37:20;13.00;;;6.70;;
19095;SDS011;9680;52.520;13.332;2023-06-22T04:39:48;14.20;;;6.63;;
19095;SDS011;9680;52.520;13.332;2023-06-22T04:42:15;13.35;;;7.07;;
19095;SDS011;9680;52.520;13.332;2023-06-22T04:44:42;9.13;;;6.53;;
19095;SDS011;9680;52.520;13.332;2023-06-22T04:47:11;12.18;;;6.30;;
19095;SDS011;9680;52.520;13.332;2023-06-22T04:49:37;12.75;;;6.38;;
19095;SDS011;9680;52.520;13.332;2023-06-22T04:52:07;9.43;;;5.72;;
19095;SDS011;9680;52.520;13.332;2023-06-22T04:54:35;11.05;;;5.70;;
19095;SDS011;9680;52.520;13.332;2023-06-22T04:57:03;9.10;;;5.10;;
19095;SDS011;9680;52.520;13.332;2023-06-22T04:59:35;7.20;;;4.82;;
19095;SDS011;9680;52.520;13.332;2023-06-22T05:02:04;8.15;;;5.05;;
19095;SDS011;9680;52.520;13.332;2023-06-22T05:04:32;8.25;;;4.78;;
19095;SDS011;9680;52.520;13.332;2023-06-22T05:07:01;8.43;;;4.63;;
19095;SDS011;9680;52.520;13.332;2023-06-22T05:09:30;7.75;;;4.65;;
19095;SDS011;9680;52.520;13.332;2023-06-22T05:11:58;7.47;;;4.65;;
19095;SDS011;9680;52.520;13.332;2023-06-22T05:14:27;8.13;;;4.72;;
19095;SDS011;9680;52.520;13.332;2023-06-22T05:16:54;8.20;;;4.85;;
19095;SDS011;9680;52.520;13.332;2023-06-22T05:19:23;7.32;;;4.32;;
19095;SDS011;9680;52.520;13.332;2023-06-22T05:24:20;7.22;;;4.15;;
19095;SDS011;9680;52.520;13.332;2023-06-22T05:26:48;7.13;;;3.80;;
19095;SDS011;9680;52.520;13.332;2023-06-22T05:29:15;6.30;;;3.60;;
19095;SDS011;9680;52.520;13.332;2023-06-22T05:31:41;6.07;;;3.22;;
19095;SDS011;9680;52.520;13.332;2023-06-22T05:34:08;5.47;;;3.33;;
19095;SDS011;9680;52.520;13.332;2023-06-22T05:36:35;5.97;;;3.70;;
19095;SDS011;9680;52.520;13.332;2023-06-22T05:39:10;9.35;;;3.80;;
19095;SDS011;9680;52.520;13.332;2023-06-22T05:41:37;5.85;;;3.88;;
19095;SDS011;9680;52.520;13.332;2023-06-22T05:44:05;6.78;;;3.90;;
19095;SDS011;9680;52.520;13.332;2023-06-22T05:46:32;6.57;;;3.90;;
19095;SDS011;9680;52.520;13.332;2023-06-22T05:48:59;9.38;;;4.03;;
19095;SDS011;9680;52.520;13.332;2023-06-22T05:51:26;8.43;;;3.95;;
19095;SDS011;9680;52.520;13.332;2023-06-22T05:53:53;7.15;;;3.85;;
19095;SDS011;9680;52.520;13.332;2023-06-22T05:56:19;5.22;;;3.60;;
19095;SDS011;9680;52.520;13.332;2023-06-22T05:58:46;6.00;;;3.85;;
19095;SDS011;9680;52.520;13.332;2023-06-22T06:01:14;7.95;;;3.90;;
19095;SDS011;9680;52.520;13.332;2023-06-22T06:03:41;6.40;;;3.67;;
19095;SDS011;9680;52.520;13.332;2023-06-22T06:06:09;6.88;;;3.78;;
19095;SDS011;9680;52.520;13.332;2023-06-22T06:08:36;7.38;;;3.88;;
19095;SDS011;9680;52.520;13.332;2023-06-22T06:11:03;6.75;;;3.90;;
19095;SDS011;9680;52.520;13.332;2023-06-22T06:13:32;6.88;;;4.10;;
19095;SDS011;9680;52.520;13.332;2023-06-22T06:16:41;6.60;;;3.78;;
19095;SDS011;9680;52.520;13.332;2023-06-22T06:19:08;7.68;;;4.00;;
19095;SDS011;9680;52.520;13.332;2023-06-22T06:21:39;5.78;;;3.92;;
19095;SDS011;9680;52.520;13.332;2023-06-22T06:24:06;7.38;;;3.83;;
19095;SDS011;9680;52.520;13.332;2023-06-22T06:26:33;5.95;;;4.07;;
19095;SDS011;9680;52.520;13.332;2023-06-22T06:29:00;5.18;;;3.00;;
19095;SDS011;9680;52.520;13.332;2023-06-22T06:31:28;5.95;;;3.25;;
19095;SDS011;9680;52.520;13.332;2023-06-22T06:33:57;7.65;;;3.50;;
19095;SDS011;9680;52.520;13.332;2023-06-22T06:36:24;6.30;;;3.33;;
19095;SDS011;9680;52.520;13.332;2023-06-22T06:38:51;5.93;;;3.10;;
19095;SDS011;9680;52.520;13.332;2023-06-22T06:41:19;10.27;;;3.70;;
19095;SDS011;9680;52.520;13.332;2023-06-22T06:43:46;5.60;;;3.30;;
19095;SDS011;9680;52.520;13.332;2023-06-22T06:46:13;5.35;;;3.70;;
19095;SDS011;9680;52.520;13.332;2023-06-22T06:48:44;5.32;;;3.17;;
19095;SDS011;9680;52.520;13.332;2023-06-22T06:51:14;4.50;;;2.90;;
19095;SDS011;9680;52.520;13.332;2023-06-22T06:53:41;4.75;;;3.00;;
19095;SDS011;9680;52.520;13.332;2023-06-22T06:56:08;6.85;;;3.42;;
19095;SDS011;9680;52.520;13.332;2023-06-22T06:58:36;5.22;;;3.40;;
19095;SDS011;9680;52.520;13.332;2023-06-22T07:01:03;6.80;;;3.35;;
19095;SDS011;9680;52.520;13.332;2023-06-22T07:03:29;5.60;;;3.33;;
19095;SDS011;9680;52.520;13.332;2023-06-22T07:05:58;6.85;;;3.42;;
19095;SDS011;9680;52.520;13.332;2023-06-22T07:08:26;5.57;;;3.25;;
19095;SDS011;9680;52.520;13.332;2023-06-22T07:10:53;5.07;;;3.30;;
19095;SDS011;9680;52.520;13.332;2023-06-22T07:13:20;6.97;;;3.58;;
19095;SDS011;9680;52.520;13.332;2023-06-22T07:16:07;6.45;;;3.00;;
19095;SDS011;9680;52.520;13.332;2023-06-22T07:18:33;6.05;;;3.42;;
19095;SDS011;9680;52.520;13.332;2023-06-22T07:21:00;7.32;;;3.33;;
19095;SDS011;9680;52.520;13.332;2023-06-22T07:23:30;9.48;;;2.85;;
19095;SDS011;9680;52.520;13.332;2023-06-22T07:25:57;4.88;;;3.10;;
19095;SDS011;9680;52.520;13.332;2023-06-22T07:28:27;7.28;;;3.38;;
19095;SDS011;9680;52.520;13.332;2023-06-22T07:30:53;4.40;;;2.90;;
19095;SDS011;9680;52.520;13.332;2023-06-22T07:33:20;5.07;;;2.97;;
19095;SDS011;9680;52.520;13.332;2023-06-22T07:35:47;4.60;;;2.72;;
19095;SDS011;9680;52.520;13.332;2023-06-22T07:38:16;6.18;;;2.60;;
19095;SDS011;9680;52.520;13.332;2023-06-22T07:40:44;6.03;;;2.75;;
19095;SDS011;9680;52.520;13.332;2023-06-22T07:43:12;5.63;;;2.50;;
19095;SDS011;9680;52.520;13.332;2023-06-22T07:45:38;4.72;;;2.83;;
19095;SDS011;9680;52.520;13.332;2023-06-22T07:48:07;5.43;;;2.60;;
19095;SDS011;9680;52.520;13.332;2023-06-22T07:50:34;4.80;;;2.47;;
19095;SDS011;9680;52.520;13.332;2023-06-22T07:53:01;4.50;;;2.42;;
19095;SDS011;9680;52.520;13.332;2023-06-22T07:55:27;4.18;;;2.50;;
19095;SDS011;9680;52.520;13.332;2023-06-22T07:57:56;3.80;;;2.58;;
19095;SDS011;9680;52.520;13.332;2023-06-22T08:00:23;7.90;;;2.60;;
19095;SDS011;9680;52.520;13.332;2023-06-22T08:02:50;6.30;;;2.50;;
19095;SDS011;9680;52.520;13.332;2023-06-22T08:05:17;5.47;;;2.40;;
19095;SDS011;9680;52.520;13.332;2023-06-22T08:07:44;3.95;;;2.22;;
19095;SDS011;9680;52.520;13.332;2023-06-22T08:10:11;4.47;;;2.40;;
19095;SDS011;9680;52.520;13.332;2023-06-22T08:12:38;5.20;;;2.50;;
19095;SDS011;9680;52.520;13.332;2023-06-22T08:15:07;4.40;;;2.15;;
19095;SDS011;9680;52.520;13.332;2023-06-22T08:17:36;6.28;;;2.47;;
19095;SDS011;9680;52.520;13.332;2023-06-22T08:20:03;5.72;;;2.17;;
19095;SDS011;9680;52.520;13.332;2023-06-22T08:22:34;5.28;;;2.88;;
19095;SDS011;9680;52.520;13.332;2023-06-22T08:25:01;4.95;;;2.40;;
19095;SDS011;9680;52.520;13.332;2023-06-22T08:27:29;4.50;;;2.30;;
19095;SDS011;9680;52.520;13.332;2023-06-22T08:29:57;4.63;;;2.50;;
19095;SDS011;9680;52.520;13.332;2023-06-22T08:32:25;3.38;;;2.30;;
19095;SDS011;9680;52.520;13.332;2023-06-22T08:34:52;3.45;;;2.50;;
19095;SDS011;9680;52.520;13.332;2023-06-22T08:37:19;3.50;;;2.30;;
19095;SDS011;9680;52.520;13.332;2023-06-22T08:39:50;3.85;;;2.60;;
19095;SDS011;9680;52.520;13.332;2023-06-22T08:42:16;3.70;;;2.40;;
19095;SDS011;9680;52.520;13.332;2023-06-22T08:44:43;3.58;;;2.17;;
19095;SDS011;9680;52.520;13.332;2023-06-22T08:47:10;11.10;;;2.80;;
19095;SDS011;9680;52.520;13.332;2023-06-22T08:49:38;5.85;;;2.47;;
19095;SDS011;9680;52.520;13.332;2023-06-22T08:52:05;5.88;;;2.75;;
19095;SDS011;9680;52.520;13.332;2023-06-22T08:54:33;5.72;;;2.40;;
19095;SDS011;9680;52.520;13.332;2023-06-22T08:57:00;5.80;;;2.40;;
19095;SDS011;9680;52.520;13.332;2023-06-22T08:59:27;5.07;;;2.80;;
19095;SDS011;9680;52.520;13.332;2023-06-22T09:01:53;6.20;;;3.10;;
19095;SDS011;9680;52.520;13.332;2023-06-22T09:04:21;6.25;;;2.70;;
19095;SDS011;9680;52.520;13.332;2023-06-22T09:06:50;5.75;;;3.00;;
19095;SDS011;9680;52.520;13.332;2023-06-22T09:09:17;7.00;;;2.75;;
19095;SDS011;9680;52.520;13.332;2023-06-22T09:11:44;5.13;;;2.95;;
19095;SDS011;9680;52.520;13.332;2023-06-22T09:14:11;5.43;;;2.72;;
19095;SDS011;9680;52.520;13.332;2023-06-22T09:16:44;5.75;;;3.00;;
19095;SDS011;9680;52.520;13.332;2023-06-22T09:19:11;5.03;;;3.20;;
19095;SDS011;9680;52.520;13.332;2023-06-22T09:21:38;4.90;;;2.92;;
19095;SDS011;9680;52.520;13.332;2023-06-22T09:24:07;4.57;;;2.92;;
19095;SDS011;9680;52.520;13.332;2023-06-22T09:26:34;3.80;;;2.72;;
19095;SDS011;9680;52.520;13.332;2023-06-22T09:29:01;5.60;;;3.10;;
19095;SDS011;9680;52.520;13.332;2023-06-22T09:31:31;8.20;;;2.95;;
19095;SDS011;9680;52.520;13.332;2023-06-22T09:33:58;4.28;;;3.03;;
19095;SDS011;9680;52.520;13.332;2023-06-22T09:36:25;10.93;;;2.95;;
19095;SDS011;9680;52.520;13.332;2023-06-22T09:38:52;6.53;;;3.10;;
19095;SDS011;9680;52.520;13.332;2023-06-22T09:41:22;5.70;;;2.70;;
19095;SDS011;9680;52.520;13.332;2023-06-22T09:43:49;5.57;;;3.00;;
19095;SDS011;9680;52.520;13.332;2023-06-22T09:46:16;4.95;;;2.75;;
19095;SDS011;9680;52.520;13.332;2023-06-22T09:48:44;5.38;;;2.67;;
19095;SDS011;9680;52.520;13.332;2023-06-22T09:51:11;3.90;;;2.45;;
19095;SDS011;9680;52.520;13.332;2023-06-22T09:53:38;4.15;;;2.78;;
19095;SDS011;9680;52.520;13.332;2023-06-22T09:56:04;4.30;;;2.78;;
19095;SDS011;9680;52.520;13.332;2023-06-22T09:58:33;4.22;;;2.72;;
19095;SDS011;9680;52.520;13.332;2023-06-22T10:01:00;5.18;;;2.85;;
19095;SDS011;9680;52.520;13.332;2023-06-22T10:03:30;4.25;;;2.80;;
19095;SDS011;9680;52.520;13.332;2023-06-22T10:05:57;5.50;;;2.88;;
19095;SDS011;9680;52.520;13.332;2023-06-22T10:08:24;5.45;;;2.88;;
19095;SDS011;9680;52.520;13.332;2023-06-22T10:10:51;4.70;;;2.97;;
19095;SDS011;9680;52.520;13.332;2023-06-22T10:13:18;4.47;;;3.20;;
19095;SDS011;9680;52.520;13.332;2023-06-22T10:15:47;5.05;;;3.05;;
19095;SDS011;9680;52.520;13.332;2023-06-22T10:18:16;6.15;;;3.22;;
19095;SDS011;9680;52.520;13.332;2023-06-22T10:20:43;6.72;;;3.55;;
19095;SDS011;9680;52.520;13.332;2023-06-22T10:23:10;4.43;;;3.10;;
19095;SDS011;9680;52.520;13.332;2023-06-22T10:25:37;4.47;;;3.25;;
19095;SDS011;9680;52.520;13.332;2023-06-22T10:28:03;8.25;;;4.05;;
19095;SDS011;9680;52.520;13.332;2023-06-22T10:30:30;6.43;;;3.17;;
19095;SDS011;9680;52.520;13.332;2023-06-22T10:33:01;4.70;;;3.70;;
19095;SDS011;9680;52.520;13.332;2023-06-22T10:35:28;5.15;;;3.47;;
19095;SDS011;9680;52.520;13.332;2023-06-22T10:37:54;5.70;;;3.35;;
19095;SDS011;9680;52.520;13.332;2023-06-22T10:40:21;7.82;;;3.50;;
19095;SDS011;9680;52.520;13.332;2023-06-22T10:42:48;8.52;;;3.75;;
19095;SDS011;9680;52.520;13.332;2023-06-22T10:45:16;5.45;;;3.60;;
19095;SDS011;9680;52.520;13.332;2023-06-22T10:47:43;6.05;;;3.47;;
19095;SDS011;9680;52.520;13.332;2023-06-22T10:50:12;5.22;;;3.50;;
19095;SDS011;9680;52.520;13.332;2023-06-22T10:52:39;6.30;;;4.00;;
19095;SDS011;9680;52.520;13.332;2023-06-22T10:55:07;5.88;;;3.55;;
19095;SDS011;9680;52.520;13.332;2023-06-22T10:57:34;5.32;;;3.65;;
19095;SDS011;9680;52.520;13.332;2023-06-22T11:00:02;7.97;;;3.67;;
19095;SDS011;9680;52.520;13.332;2023-06-22T11:02:30;5.22;;;3.42;;
19095;SDS011;9680;52.520;13.332;2023-06-22T11:04:57;5.47;;;3.45;;
19095;SDS011;9680;52.520;13.332;2023-06-22T11:07:27;8.95;;;3.75;;
19095;SDS011;9680;52.520;13.332;2023-06-22T11:09:54;6.43;;;4.10;;
19095;SDS011;9680;52.520;13.332;2023-06-22T11:12:21;5.05;;;3.45;;
19095;SDS011;9680;52.520;13.332;2023-06-22T11:14:48;3.95;;;3.15;;
19095;SDS011;9680;52.520;13.332;2023-06-22T11:17:16;4.07;;;3.22;;
19095;SDS011;9680;52.520;13.332;2023-06-22T11:19:43;6.65;;;3.80;;
19095;SDS011;9680;52.520;13.332;2023-06-22T11:22:10;5.18;;;3.80;;
19095;SDS011;9680;52.520;13.332;2023-06-22T11:24:39;6.75;;;3.47;;
19095;SDS011;9680;52.520;13.332;2023-06-22T11:27:06;5.95;;;3.90;;
19095;SDS011;9680;52.520;13.332;2023-06-22T11:29:33;6.88;;;3.65;;
19095;SDS011;9680;52.520;13.332;2023-06-22T11:32:02;5.60;;;3.60;;
19095;SDS011;9680;52.520;13.332;2023-06-22T11:34:29;5.68;;;4.03;;
19095;SDS011;9680;52.520;13.332;2023-06-22T11:36:55;5.68;;;4.40;;
19095;SDS011;9680;52.520;13.332;2023-06-22T11:39:22;7.65;;;3.92;;
19095;SDS011;9680;52.520;13.332;2023-06-22T11:41:51;4.80;;;3.65;;
19095;SDS011;9680;52.520;13.332;2023-06-22T11:44:18;6.93;;;3.90;;
19095;SDS011;9680;52.520;13.332;2023-06-22T11:46:44;7.18;;;3.83;;
19095;SDS011;9680;52.520;13.332;2023-06-22T11:49:11;5.07;;;3.83;;
19095;SDS011;9680;52.520;13.332;2023-06-22T11:51:38;5.25;;;3.63;;
19095;SDS011;9680;52.520;13.332;2023-06-22T11:54:05;4.95;;;3.53;;
19095;SDS011;9680;52.520;13.332;2023-06-22T11:56:33;5.47;;;3.90;;
19095;SDS011;9680;52.520;13.332;2023-06-22T11:59:01;5.65;;;3.58;;
19095;SDS011;9680;52.520;13.332;2023-06-22T12:01:28;5.00;;;3.70;;
19095;SDS011;9680;52.520;13.332;2023-06-22T12:03:55;6.93;;;3.60;;
19095;SDS011;9680;52.520;13.332;2023-06-22T12:06:22;8.55;;;3.20;;
19095;SDS011;9680;52.520;13.332;2023-06-22T12:08:49;4.45;;;3.22;;
19095;SDS011;9680;52.520;13.332;2023-06-22T12:11:16;5.00;;;3.60;;
19095;SDS011;9680;52.520;13.332;2023-06-22T12:13:42;5.45;;;3.50;;
19095;SDS011;9680;52.520;13.332;2023-06-22T12:16:10;5.22;;;3.30;;
19095;SDS011;9680;52.520;13.332;2023-06-22T12:18:37;4.65;;;3.45;;
19095;SDS011;9680;52.520;13.332;2023-06-22T12:21:04;6.18;;;3.83;;
19095;SDS011;9680;52.520;13.332;2023-06-22T12:23:31;8.43;;;3.78;;
19095;SDS011;9680;52.520;13.332;2023-06-22T12:25:58;7.32;;;3.72;;
19095;SDS011;9680;52.520;13.332;2023-06-22T12:28:25;5.50;;;3.72;;
19095;SDS011;9680;52.520;13.332;2023-06-22T12:30:51;6.03;;;3.70;;
19095;SDS011;9680;52.520;13.332;2023-06-22T12:33:20;5.57;;;3.72;;
19095;SDS011;9680;52.520;13.332;2023-06-22T12:35:47;5.15;;;3.38;;
19095;SDS011;9680;52.520;13.332;2023-06-22T12:38:14;4.70;;;3.28;;
19095;SDS011;9680;52.520;13.332;2023-06-22T12:40:41;6.13;;;3.70;;
19095;SDS011;9680;52.520;13.332;2023-06-22T12:43:07;4.57;;;3.35;;
19095;SDS011;9680;52.520;13.332;2023-06-22T12:45:34;5.22;;;3.50;;
19095;SDS011;9680;52.520;13.332;2023-06-22T12:48:01;5.90;;;3.72;;
19095;SDS011;9680;52.520;13.332;2023-06-22T12:50:29;4.75;;;3.50;;
19095;SDS011;9680;52.520;13.332;2023-06-22T12:52:56;5.03;;;3.83;;
19095;SDS011;9680;52.520;13.332;2023-06-22T12:55:24;5.82;;;3.60;;
19095;SDS011;9680;52.520;13.332;2023-06-22T12:57:51;6.20;;;3.97;;
19095;SDS011;9680;52.520;13.332;2023-06-22T13:00:18;7.97;;;4.15;;
19095;SDS011;9680;52.520;13.332;2023-06-22T13:02:45;6.05;;;3.60;;
19095;SDS011;9680;52.520;13.332;2023-06-22T13:05:12;6.15;;;4.00;;
19095;SDS011;9680;52.520;13.332;2023-06-22T13:07:40;12.13;;;3.88;;
19095;SDS011;9680;52.520;13.332;2023-06-22T13:10:08;6.18;;;4.00;;
19095;SDS011;9680;52.520;13.332;2023-06-22T13:12:35;5.80;;;3.35;;
19095;SDS011;9680;52.520;13.332;2023-06-22T13:15:01;7.45;;;3.55;;
19095;SDS011;9680;52.520;13.332;2023-06-22T13:17:28;4.97;;;3.55;;
19095;SDS011;9680;52.520;13.332;2023-06-22T13:19:55;8.55;;;4.40;;
19095;SDS011;9680;52.520;13.332;2023-06-22T13:22:26;5.63;;;4.00;;
19095;SDS011;9680;52.520;13.332;2023-06-22T13:24:55;7.60;;;4.32;;
19095;SDS011;9680;52.520;13.332;2023-06-22T13:27:22;8.50;;;4.10;;
19095;SDS011;9680;52.520;13.332;2023-06-22T13:29:49;8.55;;;4.40;;
19095;SDS011;9680;52.520;13.332;2023-06-22T13:32:16;6.13;;;4.05;;
19095;SDS011;9680;52.520;13.332;2023-06-22T13:34:43;5.75;;;4.00;;
19095;SDS011;9680;52.520;13.332;2023-06-22T13:37:10;6.85;;;3.95;;
19095;SDS011;9680;52.520;13.332;2023-06-22T13:39:38;5.93;;;4.18;;
19095;SDS011;9680;52.520;13.332;2023-06-22T13:42:07;10.00;;;4.38;;
19095;SDS011;9680;52.520;13.332;2023-06-22T13:44:34;6.22;;;3.72;;
19095;SDS011;9680;52.520;13.332;2023-06-22T13:47:01;7.00;;;4.18;;
19095;SDS011;9680;52.520;13.332;2023-06-22T13:49:28;6.47;;;4.15;;
19095;SDS011;9680;52.520;13.332;2023-06-22T13:51:54;7.97;;;4.05;;
19095;SDS011;9680;52.520;13.332;2023-06-22T13:54:21;8.30;;;3.70;;
19095;SDS011;9680;52.520;13.332;2023-06-22T13:56:48;5.53;;;4.00;;
19095;SDS011;9680;52.520;13.332;2023-06-22T13:59:16;7.63;;;4.07;;
19095;SDS011;9680;52.520;13.332;2023-06-22T14:01:43;5.40;;;3.88;;
19095;SDS011;9680;52.520;13.332;2023-06-22T14:04:10;8.55;;;4.00;;
19095;SDS011;9680;52.520;13.332;2023-06-22T14:06:37;5.82;;;4.00;;
19095;SDS011;9680;52.520;13.332;2023-06-22T14:09:04;5.45;;;3.85;;
19095;SDS011;9680;52.520;13.332;2023-06-22T14:11:32;5.47;;;3.70;;
19095;SDS011;9680;52.520;13.332;2023-06-22T14:13:58;6.35;;;4.00;;
19095;SDS011;9680;52.520;13.332;2023-06-22T14:16:27;8.95;;;4.25;;
19095;SDS011;9680;52.520;13.332;2023-06-22T14:18:53;6.65;;;4.60;;
19095;SDS011;9680;52.520;13.332;2023-06-22T14:21:20;7.90;;;3.90;;
19095;SDS011;9680;52.520;13.332;2023-06-22T14:23:47;6.57;;;3.90;;
19095;SDS011;9680;52.520;13.332;2023-06-22T14:26:14;5.47;;;3.83;;
19095;SDS011;9680;52.520;13.332;2023-06-22T14:28:42;5.93;;;4.20;;
19095;SDS011;9680;52.520;13.332;2023-06-22T14:31:12;8.07;;;4.20;;
19095;SDS011;9680;52.520;13.332;2023-06-22T14:33:43;5.10;;;3.72;;
19095;SDS011;9680;52.520;13.332;2023-06-22T14:36:11;8.43;;;4.18;;
19095;SDS011;9680;52.520;13.332;2023-06-22T14:38:38;5.72;;;4.20;;
19095;SDS011;9680;52.520;13.332;2023-06-22T14:41:04;6.60;;;4.45;;
19095;SDS011;9680;52.520;13.332;2023-06-22T14:43:31;6.18;;;4.05;;
19095;SDS011;9680;52.520;13.332;2023-06-22T14:45:58;5.63;;;4.05;;
19095;SDS011;9680;52.520;13.332;2023-06-22T14:48:25;6.57;;;4.13;;